createdAt,value
2019-04-22T00:01:21.560Z,50.15
2019-04-22T00:03:55.318Z,54.00
2019-04-22T00:06:44.419Z,56.40
2019-04-22T00:09:24.142Z,50.50
2019-04-22T00:12:06.106Z,57.43
2019-04-22T00:14:28.334Z,55.75
2019-04-22T00:17:19.985Z,53.78
2019-04-22T00:19:45.665Z,50.35
2019-04-22T00:22:22.111Z,51.65
2019-04-22T00:24:54.743Z,50.63
2019-04-22T00:27:32.059Z,54.75
2019-04-22T00:32:36.316Z,50.58
2019-04-22T00:35:18.259Z,56.85
2019-04-22T00:37:57.003Z,55.43
2019-04-22T00:40:36.620Z,51.48
2019-04-22T00:43:06.790Z,51.42
2019-04-22T00:48:21.006Z,66.15
2019-04-22T00:50:55.463Z,51.00
2019-04-22T00:53:23.983Z,43.75
2019-04-22T00:58:41.163Z,49.13
2019-04-22T01:01:19.194Z,58.83
2019-04-22T01:03:58.425Z,53.05
2019-04-22T01:06:29.126Z,54.38
2019-04-22T01:11:33.265Z,61.23
2019-04-22T01:14:06.660Z,54.35
2019-04-22T01:16:45.003Z,60.92
2019-04-22T01:19:23.601Z,72.10
2019-04-22T01:22:12.959Z,60.48
2019-04-22T01:24:31.066Z,69.47
2019-04-22T01:26:58.242Z,70.87
2019-04-22T01:29:32.163Z,62.88
2019-04-22T01:31:52.675Z,71.47
2019-04-22T01:34:40.092Z,62.23
2019-04-22T01:37:21.740Z,64.27
2019-04-22T01:40:04.522Z,57.83
2019-04-22T01:42:35.882Z,57.05
2019-04-22T01:45:06.698Z,59.25
2019-04-22T01:47:44.141Z,59.23
2019-04-22T01:50:23.972Z,64.70
2019-04-22T01:52:52.072Z,63.02
2019-04-22T01:57:57.606Z,61.80
2019-04-22T02:00:38.316Z,54.30
2019-04-22T02:03:12.828Z,55.70
2019-04-22T02:05:44.197Z,52.20
2019-04-22T02:08:25.292Z,49.23
2019-04-22T02:10:54.820Z,51.95
2019-04-22T02:13:29.119Z,58.02
2019-04-22T02:16:05.711Z,58.30
2019-04-22T02:18:39.386Z,54.30
2019-04-22T02:21:07.280Z,55.33
2019-04-22T02:26:26.044Z,61.02
2019-04-22T02:31:35.932Z,58.05
2019-04-22T02:34:22.230Z,56.75
2019-04-22T02:36:41.137Z,50.25
2019-04-22T02:39:11.833Z,57.83
2019-04-22T02:44:20.364Z,57.17
2019-04-22T02:49:31.195Z,54.93
2019-04-22T02:52:14.547Z,51.95
2019-04-22T02:57:49.411Z,67.05
2019-04-22T03:00:29.379Z,67.22
2019-04-22T03:05:45.509Z,61.40
2019-04-22T03:08:36.717Z,64.03
2019-04-22T03:13:30.789Z,65.42
2019-04-22T03:16:08.025Z,60.50
2019-04-22T03:18:46.896Z,59.20
2019-04-22T03:28:58.685Z,60.35
2019-04-22T03:37:21.439Z,58.70
2019-04-22T03:39:53.490Z,58.10
2019-04-22T03:42:10.018Z,60.63
2019-04-22T03:45:00.546Z,56.10
2019-04-22T03:47:47.827Z,56.05
2019-04-22T03:52:27.757Z,58.15
2019-04-22T03:57:49.771Z,51.88
2019-04-22T04:03:06.881Z,55.60
2019-04-22T04:05:57.659Z,52.35
2019-04-22T04:08:35.666Z,54.70
2019-04-22T04:11:07.058Z,59.58
2019-04-22T04:16:26.746Z,52.35
2019-04-22T04:19:02.627Z,51.00
2019-04-22T04:21:33.199Z,47.30
2019-04-22T04:24:29.586Z,50.40
2019-04-22T04:26:59.143Z,49.08
2019-04-22T04:42:43.681Z,49.10
2019-04-22T04:45:31.682Z,47.05
2019-04-22T04:47:55.270Z,44.25
2019-04-22T04:50:27.145Z,40.98
2019-04-22T04:53:14.450Z,45.50
2019-04-22T04:55:35.141Z,45.83
2019-04-22T04:58:36.585Z,44.27
2019-04-22T05:01:10.933Z,44.70
2019-04-22T05:03:39.918Z,43.90
2019-04-22T05:06:05.989Z,42.62
2019-04-22T05:11:16.251Z,42.95
2019-04-22T05:21:22.424Z,42.98
2019-04-22T05:26:44.802Z,42.55
2019-04-22T05:29:14.902Z,41.75
2019-04-22T05:31:52.339Z,39.45
2019-04-22T05:34:22.826Z,40.85
2019-04-22T05:36:52.850Z,40.38
2019-04-22T05:39:32.683Z,43.50
2019-04-22T05:42:10.382Z,39.63
2019-04-22T05:44:44.010Z,45.40
2019-04-22T05:47:14.680Z,37.03
2019-04-22T05:49:41.625Z,42.73
2019-04-22T05:52:20.351Z,36.23
2019-04-22T05:55:03.320Z,35.52
2019-04-22T05:57:45.713Z,42.23
2019-04-22T06:00:17.865Z,40.73
2019-04-22T06:05:17.167Z,36.45
2019-04-22T06:07:55.703Z,40.08
2019-04-22T06:10:33.174Z,46.00
2019-04-22T06:13:01.011Z,39.00
2019-04-22T06:15:36.196Z,44.35
2019-04-22T06:23:34.593Z,43.78
2019-04-22T06:31:15.735Z,38.85
2019-04-22T06:33:56.746Z,43.35
2019-04-22T06:36:34.478Z,43.70
2019-04-22T06:39:01.555Z,39.03
2019-04-22T06:41:33.267Z,42.65
2019-04-22T06:44:10.953Z,40.45
2019-04-22T06:46:39.759Z,38.67
2019-04-22T06:49:32.798Z,41.92
2019-04-22T06:52:08.026Z,34.25
2019-04-22T06:54:35.982Z,33.50
2019-04-22T06:57:06.274Z,33.73
2019-04-22T06:59:45.755Z,36.53
2019-04-22T07:02:20.589Z,32.33
2019-04-22T07:04:49.412Z,33.28
2019-04-22T07:07:24.075Z,37.08
2019-04-22T07:10:09.639Z,37.80
2019-04-22T07:12:34.723Z,39.27
2019-04-22T07:15:12.785Z,36.73
2019-04-22T07:17:49.117Z,39.33
2019-04-22T07:20:18.016Z,39.67
2019-04-22T07:22:45.375Z,39.03
2019-04-22T07:25:23.430Z,38.17
2019-04-22T07:28:02.058Z,41.48
2019-04-22T07:30:56.159Z,40.12
2019-04-22T07:35:57.472Z,38.63
2019-04-22T07:38:43.830Z,41.60
2019-04-22T07:41:34.468Z,38.58
2019-04-22T07:46:50.094Z,42.33
2019-04-22T07:49:18.379Z,36.15
2019-04-22T07:51:54.255Z,32.53
2019-04-22T07:54:29.232Z,33.30
2019-04-22T07:57:16.419Z,38.73
2019-04-22T07:59:43.720Z,40.38
2019-04-22T08:02:16.188Z,34.33
2019-04-22T08:05:08.812Z,37.55
2019-04-22T08:07:29.990Z,34.73
2019-04-22T08:10:08.478Z,34.75
2019-04-22T08:12:38.627Z,40.00
2019-04-22T08:15:12.560Z,37.78
2019-04-22T08:20:23.822Z,40.23
2019-04-22T08:22:57.639Z,36.13
2019-04-22T08:25:33.436Z,37.60
2019-04-22T08:28:03.485Z,35.35
2019-04-22T08:30:44.476Z,32.85
2019-04-22T08:33:15.947Z,32.93
2019-04-22T08:36:04.428Z,30.75
2019-04-22T08:38:24.168Z,31.85
2019-04-22T08:46:34.074Z,33.58
2019-04-22T08:48:59.061Z,30.77
2019-04-22T08:51:35.938Z,26.62
2019-04-22T08:54:12.159Z,29.57
2019-04-22T08:57:06.806Z,28.35
2019-04-22T08:59:18.006Z,26.60
2019-04-22T09:01:59.353Z,24.45
2019-04-22T09:04:48.950Z,23.90
2019-04-22T09:09:55.658Z,27.80
2019-04-22T09:12:46.889Z,25.75
2019-04-22T09:15:03.944Z,29.55
2019-04-22T09:17:40.164Z,28.12
2019-04-22T09:20:21.723Z,32.70
2019-04-22T09:25:36.026Z,34.83
2019-04-22T09:28:17.538Z,28.67
2019-04-22T09:30:57.198Z,30.30
2019-04-22T09:33:27.811Z,29.95
2019-04-22T09:36:00.150Z,33.75
2019-04-22T09:38:38.356Z,29.45
2019-04-22T09:41:13.912Z,36.83
2019-04-22T09:46:32.724Z,25.27
2019-04-22T09:49:09.700Z,33.53
2019-04-22T09:51:37.159Z,31.82
2019-04-22T09:54:19.769Z,17.57
2019-04-22T09:56:47.586Z,20.72
2019-04-22T09:59:20.481Z,31.15
2019-04-22T10:02:10.242Z,25.50
2019-04-22T10:04:34.954Z,32.70
2019-04-22T10:06:59.582Z,22.05
2019-04-22T10:09:53.131Z,30.35
2019-04-22T10:12:25.049Z,34.53
2019-04-22T10:15:00.554Z,44.73
2019-04-22T10:17:32.347Z,33.78
2019-04-22T10:20:10.193Z,34.25
2019-04-22T10:22:46.499Z,40.15
2019-04-22T10:25:21.462Z,34.98
2019-04-22T10:27:55.495Z,34.70
2019-04-22T10:30:33.318Z,37.17
2019-04-22T10:33:00.782Z,34.27
2019-04-22T10:35:17.152Z,37.58
2019-04-22T10:37:46.160Z,35.88
2019-04-22T10:40:21.764Z,40.83
2019-04-22T10:42:54.187Z,35.03
2019-04-22T10:45:28.187Z,40.35
2019-04-22T10:48:01.597Z,41.35
2019-04-22T10:50:43.073Z,49.05
2019-04-22T10:53:17.718Z,43.28
2019-04-22T10:55:51.552Z,35.78
2019-04-22T10:58:24.895Z,38.00
2019-04-22T11:00:58.198Z,36.40
2019-04-22T11:03:33.048Z,36.63
2019-04-22T11:06:05.553Z,37.48
2019-04-22T11:08:45.826Z,40.15
2019-04-22T11:11:26.345Z,38.58
2019-04-22T11:13:47.488Z,35.63
2019-04-22T11:16:21.307Z,39.73
2019-04-22T11:18:53.909Z,30.43
2019-04-22T11:21:27.441Z,32.55
2019-04-22T11:24:00.747Z,41.40
2019-04-22T11:26:34.537Z,38.67
2019-04-22T11:29:07.716Z,33.50
2019-04-22T11:31:42.055Z,37.78
2019-04-22T11:34:15.328Z,36.55
2019-04-22T11:36:48.081Z,40.00
2019-04-22T11:39:21.684Z,43.23
2019-04-22T11:41:54.239Z,36.93
2019-04-22T11:44:27.657Z,37.40
2019-04-22T11:47:01.422Z,36.85
2019-04-22T11:49:36.110Z,39.60
2019-04-22T11:52:10.863Z,61.55
2019-04-22T11:54:46.499Z,78.78
2019-04-22T11:57:19.038Z,78.95
2019-04-22T11:59:51.568Z,54.53
2019-04-22T12:02:25.395Z,88.52
2019-04-22T12:04:59.012Z,84.07
2019-04-22T12:07:33.575Z,61.33
2019-04-22T12:10:20.041Z,238.82
2019-04-22T12:12:39.712Z,126.47
2019-04-22T12:15:13.240Z,110.08
2019-04-22T12:17:46.212Z,131.70
2019-04-22T12:20:21.761Z,89.05
2019-04-22T12:22:56.741Z,81.40
2019-04-22T12:25:39.734Z,76.57
2019-04-22T12:28:11.068Z,77.92
2019-04-22T12:30:43.682Z,81.47
2019-04-22T12:35:48.672Z,73.83
2019-04-22T12:38:22.061Z,52.95
2019-04-22T12:40:59.286Z,48.20
2019-04-22T12:43:29.842Z,54.65
2019-04-22T12:46:02.457Z,52.45
2019-04-22T12:48:35.141Z,25.25
2019-04-22T12:51:09.064Z,40.73
2019-04-22T12:53:42.280Z,54.42
2019-04-22T12:56:15.393Z,67.85
2019-04-22T12:58:49.658Z,52.17
2019-04-22T13:01:24.464Z,43.90
2019-04-22T13:04:03.175Z,56.77
2019-04-22T13:06:32.058Z,61.60
2019-04-22T13:09:06.630Z,65.45
2019-04-22T13:11:40.719Z,49.15
2019-04-22T13:14:14.798Z,53.92
2019-04-22T13:16:47.402Z,37.83
2019-04-22T13:19:23.058Z,37.33
2019-04-22T13:21:56.445Z,49.58
2019-04-22T13:24:30.052Z,38.90
2019-04-22T13:27:03.283Z,50.40
2019-04-22T13:29:37.232Z,58.30
2019-04-22T13:32:16.566Z,43.83
2019-04-22T13:34:54.101Z,49.08
2019-04-22T13:37:23.409Z,73.72
2019-04-22T13:39:56.880Z,72.42
2019-04-22T13:42:30.112Z,41.45
2019-04-22T13:45:04.129Z,66.28
2019-04-22T13:47:55.729Z,34.58
2019-04-22T13:50:56.433Z,55.43
2019-04-22T13:53:34.313Z,60.70
2019-04-22T13:58:08.093Z,63.68
2019-04-22T14:00:36.356Z,31.45
2019-04-22T14:03:12.769Z,66.22
2019-04-22T14:05:48.835Z,68.65
2019-04-22T14:08:23.048Z,63.08
2019-04-22T14:11:13.186Z,55.40
2019-04-22T14:13:34.115Z,42.98
2019-04-22T14:16:09.033Z,74.50
2019-04-22T14:18:44.592Z,53.70
2019-04-22T14:21:16.871Z,51.63
2019-04-22T14:23:54.197Z,42.40
2019-04-22T14:26:28.482Z,50.85
2019-04-22T14:29:01.877Z,52.75
2019-04-22T14:31:34.329Z,38.05
2019-04-22T14:34:08.138Z,34.43
2019-04-22T14:36:41.639Z,48.50
2019-04-22T14:39:15.672Z,50.38
2019-04-22T14:42:12.739Z,43.17
2019-04-22T14:45:13.429Z,43.90
2019-04-22T14:47:19.814Z,58.52
2019-04-22T14:49:56.010Z,52.53
2019-04-22T14:52:27.791Z,23.70
2019-04-22T14:54:51.813Z,53.63
2019-04-22T14:57:15.057Z,49.30
2019-04-22T14:59:51.545Z,60.50
2019-04-22T15:02:25.537Z,58.40
2019-04-22T15:04:58.416Z,41.50
2019-04-22T15:07:31.191Z,48.83
2019-04-22T15:10:04.228Z,51.40
2019-04-22T15:12:45.684Z,45.85
2019-04-22T15:15:34.402Z,41.10
2019-04-22T15:18:13.409Z,43.28
2019-04-22T15:20:52.346Z,40.73
2019-04-22T15:23:24.843Z,39.55
2019-04-22T15:25:58.793Z,48.98
2019-04-22T15:28:33.287Z,49.10
2019-04-22T15:31:05.711Z,46.70
2019-04-22T15:33:39.564Z,45.85
2019-04-22T15:36:12.479Z,54.13
2019-04-22T15:38:45.386Z,52.48
2019-04-22T15:41:24.851Z,52.00
2019-04-22T15:43:59.703Z,45.10
2019-04-22T15:46:34.987Z,46.20
2019-04-22T15:49:09.788Z,45.12
2019-04-22T15:51:42.901Z,43.00
2019-04-22T15:54:16.145Z,47.08
2019-04-22T15:56:48.878Z,47.95
2019-04-22T15:59:41.689Z,44.42
2019-04-22T16:01:59.846Z,44.13
2019-04-22T16:04:32.548Z,34.00
2019-04-22T16:07:05.109Z,44.03
2019-04-22T16:09:39.348Z,33.78
2019-04-22T16:12:21.564Z,43.55
2019-04-22T16:14:53.037Z,39.35
2019-04-22T16:17:22.375Z,48.42
2019-04-22T16:19:55.261Z,48.68
2019-04-22T16:25:19.403Z,40.52
2019-04-22T16:27:52.797Z,38.90
2019-04-22T16:30:27.786Z,41.73
2019-04-22T16:33:05.610Z,38.28
2019-04-22T16:35:38.244Z,38.42
2019-04-22T16:38:10.867Z,35.17
2019-04-22T16:40:46.049Z,43.13
2019-04-22T16:43:19.468Z,38.05
2019-04-22T16:45:53.815Z,36.55
2019-04-22T16:48:27.451Z,37.80
2019-04-22T16:51:02.218Z,36.93
2019-04-22T16:53:36.973Z,37.13
2019-04-22T16:56:10.997Z,39.95
2019-04-22T16:58:43.375Z,38.13
2019-04-22T17:01:34.795Z,40.00
2019-04-22T17:04:18.816Z,34.88
2019-04-22T17:06:53.319Z,36.50
2019-04-22T17:09:25.988Z,38.73
2019-04-22T17:11:58.797Z,37.67
2019-04-22T17:14:37.252Z,40.08
2019-04-22T17:17:06.565Z,34.43
2019-04-22T17:19:39.628Z,37.90
2019-04-22T17:22:13.089Z,40.20
2019-04-22T17:24:47.829Z,36.23
2019-04-22T17:27:20.381Z,36.73
2019-04-22T17:29:52.587Z,47.83
2019-04-22T17:32:27.329Z,46.25
2019-04-22T17:34:59.338Z,40.43
2019-04-22T17:37:37.112Z,40.05
2019-04-22T17:40:27.746Z,34.40
2019-04-22T17:43:06.943Z,45.40
2019-04-22T17:45:45.081Z,47.88
2019-04-22T17:48:30.565Z,53.52
2019-04-22T17:51:20.630Z,36.60
2019-04-22T17:53:46.710Z,47.23
2019-04-22T17:56:15.619Z,36.05
2019-04-22T17:58:51.198Z,40.50
2019-04-22T18:01:29.711Z,42.62
2019-04-22T18:03:48.941Z,33.50
2019-04-22T18:06:51.593Z,38.67
2019-04-22T18:09:19.416Z,31.93
2019-04-22T18:11:51.390Z,34.20
2019-04-22T18:17:00.236Z,38.28
2019-04-22T18:19:32.556Z,33.05
2019-04-22T18:22:00.834Z,37.93
2019-04-22T18:24:28.142Z,34.90
2019-04-22T18:27:30.467Z,36.68
2019-04-22T18:29:48.536Z,38.95
2019-04-22T18:32:17.972Z,36.58
2019-04-22T18:35:07.264Z,39.03
2019-04-22T18:37:40.301Z,36.38
2019-04-22T18:40:16.266Z,38.28
2019-04-22T18:42:52.424Z,39.18
2019-04-22T18:45:37.346Z,33.33
2019-04-22T18:47:52.211Z,37.83
2019-04-22T18:50:41.431Z,32.40
2019-04-22T18:53:16.019Z,38.00
2019-04-22T18:55:38.754Z,38.95
2019-04-22T18:58:16.803Z,37.38
2019-04-22T19:00:46.238Z,37.00
2019-04-22T19:03:25.399Z,39.00
2019-04-22T19:06:25.991Z,39.13
2019-04-22T19:08:50.254Z,35.58
2019-04-22T19:11:16.676Z,38.50
2019-04-22T19:14:03.635Z,44.50
2019-04-22T19:19:20.500Z,41.35
2019-04-22T19:21:37.779Z,42.38
2019-04-22T19:24:09.544Z,40.60
2019-04-22T19:26:59.073Z,38.48
2019-04-22T19:29:18.621Z,37.38
2019-04-22T19:31:52.355Z,47.27
2019-04-22T19:34:25.622Z,36.35
2019-04-22T19:36:57.271Z,34.58
2019-04-22T19:39:28.787Z,37.42
2019-04-22T19:42:17.011Z,40.38
2019-04-22T19:44:46.645Z,37.42
2019-04-22T19:47:25.170Z,38.85
2019-04-22T19:52:24.750Z,43.17
2019-04-22T19:54:54.961Z,43.42
2019-04-22T19:57:32.575Z,38.53
2019-04-22T20:00:11.069Z,39.78
2019-04-22T20:02:51.178Z,35.35
2019-04-22T20:05:37.172Z,41.68
2019-04-22T20:08:07.267Z,47.78
2019-04-22T20:10:38.063Z,43.48
2019-04-22T20:13:15.134Z,34.48
2019-04-22T20:15:37.060Z,40.67
2019-04-22T20:18:45.252Z,38.53
2019-04-22T20:21:00.998Z,43.23
2019-04-22T20:23:24.259Z,40.48
2019-04-22T20:25:56.103Z,41.58
2019-04-22T20:28:37.237Z,51.40
2019-04-22T20:31:14.792Z,43.00
2019-04-22T20:33:54.776Z,43.73
2019-04-22T20:36:39.197Z,35.98
2019-04-22T20:38:49.523Z,42.60
2019-04-22T20:41:22.755Z,44.20
2019-04-22T20:44:04.946Z,43.65
2019-04-22T20:46:31.620Z,41.35
2019-04-22T20:49:04.979Z,45.55
2019-04-22T20:51:54.313Z,40.45
2019-04-22T20:54:19.361Z,46.40
2019-04-22T20:56:45.095Z,44.35
2019-04-22T20:59:23.774Z,46.37
2019-04-22T21:01:56.329Z,45.08
2019-04-22T21:04:22.183Z,48.92
2019-04-22T21:07:01.914Z,46.75
2019-04-22T21:09:41.004Z,46.23
2019-04-22T21:12:12.599Z,45.28
2019-04-22T21:14:52.873Z,42.10
2019-04-22T21:17:28.271Z,49.88
2019-04-22T21:20:00.581Z,46.77
2019-04-22T21:22:33.553Z,46.55
2019-04-22T21:25:02.182Z,42.53
2019-04-22T21:27:45.112Z,49.67
2019-04-22T21:30:10.728Z,51.70
2019-04-22T21:32:45.029Z,49.88
2019-04-22T21:35:38.263Z,44.75
2019-04-22T21:37:58.359Z,50.33
2019-04-22T21:40:32.408Z,51.98
2019-04-22T21:43:07.110Z,49.05
2019-04-22T21:45:31.039Z,48.78
2019-04-22T21:48:20.595Z,46.02
2019-04-22T21:53:29.205Z,46.63
2019-04-22T21:56:00.264Z,46.80
2019-04-22T21:58:39.709Z,58.83
2019-04-22T22:01:33.043Z,52.00
2019-04-22T22:04:03.622Z,70.42
2019-04-22T22:06:23.549Z,47.93
2019-04-22T22:09:13.025Z,53.80
2019-04-22T22:11:34.661Z,85.70
2019-04-22T22:14:13.584Z,69.32
2019-04-22T22:16:38.932Z,71.17
2019-04-22T22:19:17.730Z,56.30
2019-04-22T22:21:58.655Z,93.25
2019-04-22T22:24:32.607Z,64.22
2019-04-22T22:27:04.548Z,65.15
2019-04-22T22:29:49.327Z,48.75
2019-04-22T22:32:11.714Z,58.13
2019-04-22T22:34:38.869Z,56.50
2019-04-22T22:37:07.675Z,59.98
2019-04-22T22:39:41.760Z,56.58
2019-04-22T22:42:03.761Z,56.75
2019-04-22T22:44:42.194Z,60.73
2019-04-22T22:47:31.367Z,51.73
2019-04-22T22:50:02.994Z,50.70
2019-04-22T22:52:51.684Z,55.38
2019-04-22T22:55:13.415Z,59.55
2019-04-22T22:57:54.123Z,58.08
2019-04-22T23:00:22.496Z,59.48
2019-04-22T23:03:13.701Z,60.28
2019-04-22T23:05:34.013Z,58.23
2019-04-22T23:08:07.784Z,57.62
2019-04-22T23:10:44.336Z,54.85
2019-04-22T23:13:15.626Z,51.18
2019-04-22T23:15:43.009Z,57.53
2019-04-22T23:17:59.593Z,57.27
2019-04-22T23:20:37.545Z,58.90
2019-04-22T23:23:26.775Z,56.98
2019-04-22T23:26:02.232Z,56.55
2019-04-22T23:28:38.780Z,64.70
2019-04-22T23:31:23.632Z,68.05
2019-04-22T23:34:06.719Z,61.58
2019-04-22T23:36:54.239Z,60.60
2019-04-22T23:39:35.622Z,62.58
2019-04-22T23:42:06.307Z,59.95
2019-04-22T23:44:38.163Z,63.25
2019-04-22T23:47:06.094Z,80.28
2019-04-22T23:49:53.571Z,78.30
2019-04-22T23:52:24.383Z,88.37
2019-04-22T23:55:11.519Z,62.43
2019-04-22T23:57:42.457Z,92.17
